Herne Bay, United Kingdom
Current Conditions -  °F | °C
As of 8:20 PM on Saturday 25 Oct 2014 (Local Time) from EGMC Reporting Station
Scattered Clouds Scattered Clouds  
Wind Chill: 52°   Ceiling: Unl
Heat Index: 52°   Visibility: 6mi
Dew Point: 46°   Wind: 10mph
Humidity: 82%   Direction: 220°SW
Pressure: 30.12"   Gusts: NA
Location:  51.37°N, 1.13°E
Report Text: EGMC 251920Z 22009KT 9999 SCT040 11/08 Q1020
Loading
Personal Weather Stations






























Interactive Weather Map New forecast layout! Learn more

10-Day Weather Forecast

Advertisements
Track Severe Weather on mobile